Yakutsk Airport
UEEE : now visible

Airfield :











YOU CAN JOIN US ON...

 
LOGIN :

Register | Disclaimer

   EN    FR    IT 

 









Legend :    VFR   Marginal VFR   IFR   Intensive IFR   Very Intensive IFR
Visi :
Ceiling :
>= 8 km
>= 3000ft
5 to 8 km
1000 to 3000 ft
1500m to 5 km
500 to 1000 ft
800 to 1500m
200 to 500 ft
< 800m
< 200 ft
Symbols :   Thunderstorms  Fog  Heavy snow  Heavy precipitations  Wind > 20 kt






- Airport Elevation : 325 ft
- IATA code : YKS


UEEE - Yakutsk

CURRENT METAR :
  • 230630Z 31003MPS 9999 BKN019 M06/M09 Q1028 R23L/09//55 NOSIG RMK QFE762

EXPIRED METARs :
  • 230600Z 30004MPS 9999 BKN019 M06/M09 Q1028 R23L/09//55 NOSIG RMK QFE762
  • 230530Z 28004MPS 9999 SCT019 M06/M09 Q1028 R23L/09//55 NOSIG RMK QFE762
  • 230500Z 30004MPS 9999 SCT022 M06/M09 Q1028 R23L/09//55 NOSIG RMK QFE762
  • 230430Z 31004MPS 9999 SCT022 M06/M09 Q1028 R23L/09//55 NOSIG RMK QFE762

TAF TAF UEEE
Valid from the 23 at 06:00 until the 24 at 12:00 UTC


230500Z 2306/2412 31005G10MPS 9999 BKN015CB OVC070
TEMPO 2306/2312 3200 -SHSN DRSN SCT007 BKN015CB OVC070



MET'MAP, your aeronautical weather chart ! - Copyright ORBIFLY December 2007 - Disclaimer

ORBIFLY MET'MAP TEAM :

Programming & Development : Alexandra Zaïnal
Concept & Development : Baudouin d'Aumeries
Co-Development & Prog : Marc-Olivier Méhu
Technical & hardware support : Manuel Goepfert

Contact : metmap@orbifly.com




SOURCES & CREDITS :

   NOAA       Earth
Advisory